• Join FlightAware (Why Join?)
  • Login
  • US Flag 
11:35PM EST


 

Airport Tracker/Info


-or-


 

Live Flight TrackerFlight Track Log ✈ CCA1754 ✈ 17-Apr-2013 ✈ ZPPP / KMG - ZSHC / HGH

Flight Track Log - Related Links

Times and Time Zones

All times are in EDT time to prevent confusion due to time zone crossing. See the CCA1754 flight status page for this flight to view local times or setup timezone preferences in your user account.

Time Position Orientation Groundspeed Altitude Reporting Facility
EDT Latitude Longitude Course Direction KTS MPH feet Rate Location/Type
08:00AM 25.2660 103.3742 68° East  Level Estimated
08:01AM 25.3068 103.4857 68° East  Level Estimated
08:02AM 25.3475 103.5972 68° East  Level Estimated
08:03AM 25.3881 103.7088 68° East  Level Estimated
08:04AM 25.4287 103.8205 68° East  Level Estimated
08:05AM 25.4691 103.9323 68° East  Level Estimated
08:06AM 25.5095 104.0441 68° East  Level Estimated
08:07AM 25.5498 104.1560 68° East  Level Estimated
08:08AM 25.5900 104.2680 68° East  Level Estimated
08:09AM 25.6301 104.3801 68° East  Level Estimated
08:10AM 25.6702 104.4922 68° East  Level Estimated
08:11AM 25.7101 104.6044 68° East  Level Estimated
08:12AM 25.7500 104.7167 68° East  Level Estimated
08:13AM 25.7897 104.8290 69° East  Level Estimated
08:14AM 25.8294 104.9415 69° East  Level Estimated
08:15AM 25.8690 105.0540 69° East  Level Estimated
08:16AM 25.9086 105.1666 69° East  Level Estimated
08:17AM 25.9480 105.2792 69° East  Level Estimated
08:18AM 25.9873 105.3920 69° East  Level Estimated
08:19AM 26.0266 105.5048 69° East  Level Estimated
08:20AM 26.0658 105.6177 69° East  Level Estimated
08:21AM 26.1048 105.7306 69° East  Level Estimated
08:22AM 26.1438 105.8437 69° East  Level Estimated
08:23AM 26.1827 105.9568 69° East  Level Estimated
08:24AM 26.2215 106.0700 69° East  Level Estimated
08:25AM 26.2603 106.1832 69° East  Level Estimated
08:26AM 26.2989 106.2966 69° East  Level Estimated
08:27AM 26.3375 106.4100 69° East  Level Estimated
08:28AM 26.3759 106.5235 69° East  Level Estimated
08:29AM 26.4143 106.6370 69° East  Level Estimated
08:30AM 26.4526 106.7507 69° East  Level Estimated
08:31AM 26.4908 106.8644 69° East  Level Estimated
08:32AM 26.5289 106.9782 69° East  Level Estimated
08:33AM 26.5669 107.0920 70° East  Level Estimated
08:34AM 26.6048 107.2060 70° East  Level Estimated
08:35AM 26.6426 107.3200 70° East  Level Estimated
08:36AM 26.6804 107.4341 70° East  Level Estimated
08:37AM 26.7180 107.5483 70° East  Level Estimated
08:38AM 26.7556 107.6625 70° East  Level Estimated
08:39AM 26.7930 107.7768 70° East  Level Estimated
08:40AM 26.8304 107.8912 70° East  Level Estimated
08:41AM 26.8677 108.0057 70° East  Level Estimated
08:42AM 26.9049 108.1202 70° East  Level Estimated
08:43AM 26.9419 108.2349 70° East  Level Estimated
08:44AM 26.9790 108.3496 70° East  Level Estimated
08:45AM 27.0159 108.4643 70° East  Level Estimated
08:46AM 27.0527 108.5792 70° East  Level Estimated
08:47AM 27.0894 108.6941 70° East  Level Estimated
08:48AM 27.1260 108.8091 70° East  Level Estimated
08:49AM 27.1626 108.9242 70° East  Level Estimated
08:50AM 27.1990 109.0393 70° East  Level Estimated
08:51AM 27.2354 109.1545 70° East  Level Estimated
08:52AM 27.2716 109.2699 70° East  Level Estimated
08:53AM 27.3078 109.3852 71° East  Level Estimated
08:54AM 27.3438 109.5007 71° East  Level Estimated
08:55AM 27.3798 109.6162 71° East  Level Estimated
08:56AM 27.4157 109.7318 71° East  Level Estimated
08:57AM 27.4515 109.8475 71° East  Level Estimated
08:58AM 27.4871 109.9632 71° East  Level Estimated
08:59AM 27.5227 110.0790 71° East  Level Estimated
09:00AM 27.5582 110.1949 71° East  Level Estimated
09:01AM 27.5936 110.3109 71° East  Level Estimated
09:02AM 27.6289 110.4269 71° East  Level Estimated
09:03AM 27.6641 110.5431 71° East  Level Estimated
09:04AM 27.6992 110.6593 71° East  Level Estimated
09:05AM 27.7342 110.7755 71° East  Level Estimated
09:06AM 27.7691 110.8919 71° East  Level Estimated
09:07AM 27.8039 111.0083 71° East  Level Estimated
09:08AM 27.8386 111.1248 71° East  Level Estimated
09:09AM 27.8733 111.2414 71° East  Level Estimated
09:10AM 27.9078 111.3580 71° East  Level Estimated
09:11AM 27.9422 111.4747 72° East  Level Estimated
09:12AM 27.9765 111.5915 72° East  Level Estimated
09:13AM 28.0107 111.7084 72° East  Level Estimated
09:14AM 28.0449 111.8253 72° East  Level Estimated
09:15AM 28.0789 111.9424 72° East  Level Estimated
09:16AM 28.1128 112.0595 72° East  Level Estimated
09:17AM 28.1467 112.1766 72° East  Level Estimated
09:18AM 28.1804 112.2939 72° East  Level Estimated
09:19AM 28.2140 112.4112 72° East  Level Estimated
09:20AM 28.2475 112.5286 72° East  Level Estimated
09:21AM 28.2810 112.6460 72° East  Level Estimated
09:22AM 28.3143 112.7635 72° East  Level Estimated
09:23AM 28.3475 112.8812 72° East  Level Estimated
09:24AM 28.3806 112.9988 72° East  Level Estimated
09:25AM 28.4137 113.1166 72° East  Level Estimated
09:26AM 28.4466 113.2344 72° East  Level Estimated
09:27AM 28.4794 113.3523 72° East  Level Estimated
09:28AM 28.5121 113.4703 72° East  Level Estimated
09:29AM 28.5448 113.5883 73° East  Level Estimated
09:30AM 28.5773 113.7065 73° East  Level Estimated
09:31AM 28.6097 113.8247 73° East  Level Estimated
09:32AM 28.6420 113.9429 73° East  Level Estimated
09:33AM 28.6742 114.0613 73° East  Level Estimated
09:34AM 28.7063 114.1797 73° East  Level Estimated
09:35AM 28.7383 114.2981 73° East  Level Estimated
09:36AM 28.7702 114.4167 73° East  Level Estimated
09:37AM 28.8020 114.5353 73° East  Level Estimated
09:38AM 28.8337 114.6540 73° East  Level Estimated
09:39AM 28.8653 114.7728 73° East  Level Estimated
09:40AM 28.8967 114.8917 73° East  Level Estimated
09:41AM 28.9281 115.0106 73° East  Level Estimated
09:42AM 28.9594 115.1296 73° East  Level Estimated
09:43AM 28.9906 115.2486 73° East  Level Estimated
09:44AM 29.0216 115.3678 73° East  Level Estimated
09:45AM 29.0526 115.4870 73° East  Level Estimated
09:46AM 29.0834 115.6062 73° East  Level Estimated
09:47AM 29.1142 115.7256 74° East  Level Estimated
09:48AM 29.1448 115.8450 74° East  Level Estimated
09:49AM 29.1754 115.9645 74° East  Level Estimated
09:50AM 29.2058 116.0841 74° East  Level Estimated
09:51AM 29.2361 116.2037 74° East  Level Estimated
09:52AM 29.2663 116.3234 74° East  Level Estimated
09:53AM 29.2964 116.4432 74° East  Level Estimated
09:54AM 29.3264 116.5630 74° East  Level Estimated
09:55AM 29.3563 116.6829 74° East  Level Estimated
09:56AM 29.3861 116.8029 74° East  Level Estimated
09:57AM 29.4158 116.9229 74° East  Level Estimated
09:58AM 29.4454 117.0431 74° East  Level Estimated
09:59AM 29.4748 117.1633 74° East  Level Estimated
10:00AM 29.5042 117.2835 74° East  Level Estimated
10:01AM 29.5334 117.4038 74° East  Level Estimated
10:02AM 29.5626 117.5242 74° East  Level Estimated
10:03AM 29.5916 117.6447 74° East  Level Estimated
10:04AM 29.6205 117.7653 75° East  Level Estimated
10:05AM 29.6493 117.8859 75° East  Level Estimated
10:06AM 29.6780 118.0065 75° East  Level Estimated
10:07AM 29.7066 118.1273 75° East  Level Estimated
10:08AM 29.7351 118.2481 75° East  Level Estimated
10:09AM 29.7635 118.3690 75° East  Level Estimated
10:10AM 29.7918 118.4900 75° East  Level Estimated